Flight Track Log - Related Links

Times and Time Zones

All times are in EDT time to prevent confusion due to time zone crossing. See the SWA318 flight status page for this flight to view local times or setup timezone preferences in your user account.

Time Position Orientation Groundspeed Altitude Reporting Facility
EDT Latitude Longitude Course Direction KTS MPH feet Rate Location/Type
Wed 03:14:11 PM 33.4333 -112.0333 239° Southwest 158 182 1,800  Level Phoenix TRACON
Wed 03:14:59 PM 33.4167 -112.0667 239° Southwest 203 234 2,900 2,257 Climbing Phoenix TRACON
Wed 03:16:00 PM 33.4000 -112.1500 257° West 232 267 5,900 2,876 Climbing Phoenix TRACON
Wed 03:17:00 PM 33.3500 -112.1667 196° South 239 275 8,700 2,075 Climbing Phoenix TRACON
Wed 03:18:13 PM 33.3522 -112.0739 88° East 270 311 10,500 1,689 Climbing Albuquerque Center
Wed 03:19:15 PM 33.3753 -111.9667 76° East 333 383 12,500 2,177 Climbing Albuquerque Center
Wed 03:20:17 PM 33.4006 -111.8503 75° East 361 415 15,000 2,516 Climbing Albuquerque Center
Wed 03:21:19 PM 33.4272 -111.7272 75° East 382 440 17,700 3,171 Climbing Albuquerque Center
Wed 03:22:20 PM 33.4586 -111.5814 75° East 380 437 21,500 2,732 Climbing Albuquerque Center
Wed 03:23:22 PM 33.4844 -111.4647 75° East 369 425 23,300 1,597 Climbing Albuquerque Center
Wed 03:24:24 PM 33.5078 -111.3375 78° East 392 451 24,800 1,403 Climbing Albuquerque Center
Wed 03:25:26 PM 33.5217 -111.1997 83° East 417 480 26,200 1,355 Climbing Albuquerque Center
Wed 03:26:28 PM 33.5375 -111.0586 82° East 428 493 27,600 1,366 Climbing Albuquerque Center
Wed 03:27:29 PM 33.5544 -110.9136 82° East 439 505 29,000 1,854 Climbing Albuquerque Center
Wed 03:28:31 PM 33.6008 -110.7569 70° East 418 481 31,400 1,694 Climbing Albuquerque Center
Wed 03:29:33 PM 33.6406 -110.6331 69° East 406 467 32,500 1,113 Climbing Albuquerque Center
Wed 03:30:35 PM 33.6803 -110.5061 69° East 406 467 33,700 1,258 Climbing Albuquerque Center
Wed 03:31:37 PM 33.7114 -110.3814 73° East 411 473 35,100 1,024 Climbing Albuquerque Center
Wed 03:32:38 PM 33.7414 -110.2228 77° East 410 472 35,800 537 Climbing Albuquerque Center
Wed 03:33:40 PM 33.7681 -110.0861 77° East 419 482 36,200 387 Climbing Albuquerque Center
Wed 03:34:42 PM 33.7981 -109.9439 76° East 433 498 36,600 339 Climbing Albuquerque Center
Wed 03:35:44 PM 33.8267 -109.7997 77° East 443 510 36,900 194 Climbing Albuquerque Center
Wed 03:36:46 PM 33.8558 -109.6539 76° East 447 514 37,000 49 Climbing Albuquerque Center
Wed 03:37:47 PM 33.8847 -109.5067 77° East 453 521 37,000  Level Albuquerque Center
Wed 03:38:49 PM 33.9183 -109.3292 77° East 456 525 37,000  Level Albuquerque Center
Wed 03:39:51 PM 33.9464 -109.1822 77° East 454 522 37,000  Level Albuquerque Center
Wed 03:40:53 PM 33.9742 -109.0353 77° East 453 521 37,000  Level Albuquerque Center
Wed 03:41:55 PM 34.0208 -108.8967 68° East 449 517 37,000  Level Albuquerque Center
Wed 03:42:57 PM 34.0750 -108.7658 63° Northeast 442 509 37,000  Level Albuquerque Center
Wed 03:43:58 PM 34.1278 -108.6317 65° Northeast 443 510 37,000  Level Albuquerque Center
Wed 03:45:00 PM 34.1931 -108.4736 63° Northeast 443 510 37,000  Level Albuquerque Center
Wed 03:46:02 PM 34.2472 -108.3414 64° Northeast 443 510 37,000  Level Albuquerque Center
Wed 03:47:04 PM 34.3000 -108.2067 65° Northeast 445 512 37,000  Level Albuquerque Center
Wed 03:48:06 PM 34.3589 -108.0617 64° Northeast 447 514 37,000  Level Albuquerque Center
Wed 03:49:07 PM 34.4122 -107.9236 65° Northeast 451 519 37,000  Level Albuquerque Center
Wed 03:50:09 PM 34.4669 -107.7875 64° Northeast 452 520 37,000  Level Albuquerque Center
Wed 03:51:11 PM 34.5211 -107.6494 65° Northeast 454 522 37,000  Level Albuquerque Center
Wed 03:52:13 PM 34.5756 -107.5111 64° Northeast 454 522 37,000  Level Albuquerque Center
Wed 03:53:14 PM 34.6289 -107.3711 65° Northeast 457 526 37,000  Level Albuquerque Center
Wed 03:54:16 PM 34.6944 -107.2039 64° Northeast 459 528 37,000  Level Albuquerque Center
Wed 03:55:18 PM 34.7486 -107.0617 65° Northeast 462 532 37,000  Level Albuquerque Center
Wed 03:56:20 PM 34.8033 -106.9183 65° Northeast 470 541 37,000  Level Albuquerque Center
Wed 03:57:22 PM 34.8653 -106.7614 64° Northeast 466 536 37,000  Level Albuquerque Center
Wed 03:58:23 PM 34.9167 -106.6283 65° Northeast 457 526 37,000  Level Albuquerque Center
Wed 03:59:25 PM 34.9764 -106.4678 66° East 474 545 37,000  Level Albuquerque Center
Wed 04:00:27 PM 35.0303 -106.3239 65° Northeast 472 543 37,000  Level Albuquerque Center
Wed 04:01:29 PM 35.0850 -106.1806 65° Northeast 469 540 37,000  Level Albuquerque Center
Wed 04:02:31 PM 35.1411 -106.0247 66° East 464 534 37,000  Level Albuquerque Center
Wed 04:03:32 PM 35.1961 -105.8781 65° Northeast 471 542 37,000  Level Albuquerque Center
Wed 04:04:34 PM 35.2544 -105.7303 64° Northeast 476 548 37,000  Level Albuquerque Center
Wed 04:05:36 PM 35.3081 -105.5831 66° East 472 543 37,000  Level Albuquerque Center
Wed 04:06:38 PM 35.3614 -105.4339 66° East 473 544 37,000  Level Albuquerque Center
Wed 04:07:40 PM 35.4156 -105.2872 66° East 471 542 37,000  Level Albuquerque Center
Wed 04:08:42 PM 35.4772 -105.1128 66° East 471 542 37,000  Level Albuquerque Center
Wed 04:09:44 PM 35.5308 -104.9642 66° East 471 542 37,000  Level Albuquerque Center
Wed 04:10:46 PM 35.5867 -104.8131 66° East 477 549 37,000  Level Albuquerque Center
Wed 04:11:48 PM 35.6403 -104.6639 66° East 474 545 37,000  Level Albuquerque Center
Wed 04:12:50 PM 35.6939 -104.5142 66° East 472 543 37,000  Level Albuquerque Center
Wed 04:13:51 PM 35.7483 -104.3631 66° East 475 547 37,000  Level Albuquerque Center
Wed 04:14:53 PM 35.8017 -104.2106 67° East 477 549 37,000  Level Albuquerque Center
Wed 04:15:55 PM 35.8556 -104.0561 67° East 482 555 37,000  Level Albuquerque Center
Wed 04:16:57 PM 35.9100 -103.9022 66° East 484 557 37,000  Level Albuquerque Center
Wed 04:17:59 PM 35.9642 -103.7472 67° East 486 559 37,000  Level Albuquerque Center
Wed 04:19:01 PM 36.0261 -103.5686 67° East 481 554 37,000  Level Albuquerque Center
Wed 04:20:03 PM 36.0800 -103.4144 67° East 482 555 37,000  Level Albuquerque Center
Wed 04:21:05 PM 36.1344 -103.2594 66° East 486 559 37,000  Level Albuquerque Center
Wed 04:22:07 PM 36.1853 -103.1028 68° East 486 559 37,000  Level Albuquerque Center
Wed 04:23:09 PM 36.2389 -102.9456 67° East 489 563 37,000  Level Albuquerque Center
Wed 04:24:11 PM 36.2886 -102.7986 67° East 487 560 37,000  Level Albuquerque Center
Wed 04:25:13 PM 36.3500 -102.6153 67° East 481 554 37,000  Level Albuquerque Center
Wed 04:26:15 PM 36.4022 -102.4619 67° East 482 555 37,000  Level Albuquerque Center
Wed 04:27:17 PM 36.4528 -102.3086 68° East 481 554 37,000  Level Albuquerque Center
Wed 04:28:19 PM 36.5031 -102.1556 68° East 479 551 37,000  Level Albuquerque Center
Wed 04:29:21 PM 36.5533 -102.0047 67° East 475 547 37,000  Level Albuquerque Center
Wed 04:30:23 PM 36.6075 -101.8394 68° East 475 547 37,000  Level Albuquerque Center
Wed 04:31:25 PM 36.6550 -101.6925 68° East 478 550 37,000  Level Albuquerque Center
Wed 04:32:27 PM 36.7103 -101.5211 68° East 478 550 37,000  Level Albuquerque Center
Wed 04:33:29 PM 36.7586 -101.3717 68° East 484 557 37,000  Level Albuquerque Center
Wed 04:33:44 PM 36.7742 -101.3214 69° East 484 557 37,000  Level Kansas Center
Wed 04:34:46 PM 36.8225 -101.1722 68° East 485 558 37,000  Level Kansas Center
Wed 04:35:49 PM 36.8783 -100.9978 68° East 487 560 37,000  Level Kansas Center
Wed 04:36:51 PM 36.9261 -100.8461 68° East 490 564 37,000  Level Kansas Center
Wed 04:37:51 PM 36.9814 -100.6708 68° East 489 563 37,000  Level Kansas Center
Wed 04:38:55 PM 37.0292 -100.5197 68° East 489 563 37,000  Level Kansas Center
Wed 04:39:55 PM 37.0825 -100.3444 69° East 486 559 37,000  Level Kansas Center
Wed 04:40:59 PM 37.1292 -100.1958 68° East 484 557 37,000  Level Kansas Center
Wed 04:41:59 PM 37.1833 -100.0197 69° East 485 558 37,000  Level Kansas Center
Wed 04:43:03 PM 37.2289 -99.8672 69° East 488 562 37,000  Level Kansas Center
Wed 04:44:04 PM 37.2833 -99.6881 69° East 493 567 37,000  Level Kansas Center
Wed 04:45:07 PM 37.3306 -99.5333 69° East 496 571 37,000  Level Kansas Center
Wed 04:46:08 PM 37.3858 -99.3542 69° East 507 583 37,000  Level Kansas Center
Wed 04:47:10 PM 37.4367 -99.1906 69° East 505 581 37,000  Level Kansas Center
Wed 04:48:12 PM 37.4800 -99.0239 72° East 505 581 37,000  Level Kansas Center
Wed 04:49:16 PM 37.5292 -98.8592 69° East 503 579 37,000  Level Kansas Center
Wed 04:50:16 PM 37.5769 -98.6958 70° East 500 575 37,000  Level Kansas Center
Wed 04:51:20 PM 37.6242 -98.5328 70° East 497 572 37,000  Level Kansas Center
Wed 04:52:21 PM 37.6831 -98.3389 69° East 496 571 37,000  Level Kansas Center
Wed 04:53:21 PM 37.7300 -98.1761 70° East 495 570 37,000  Level Kansas Center
Wed 04:54:25 PM 37.7800 -97.9933 71° East 493 567 37,000  Level Kansas Center
Wed 04:55:26 PM 37.8272 -97.8214 71° East 508 585 37,000  Level Kansas Center
Wed 04:56:29 PM 37.8742 -97.6522 71° East 508 585 37,000  Level Kansas Center
Wed 04:57:30 PM 37.9264 -97.4778 69° East 512 589 37,000  Level Kansas Center
Wed 04:58:34 PM 37.9719 -97.3131 71° East 516 594 37,000 -48 Level Kansas Center
Wed 04:59:35 PM 38.0194 -97.1450 70° East 511 588 36,900 -443 Descending Kansas Center
Wed 05:00:36 PM 38.0653 -96.9786 71° East 502 578 36,100 -1,279 Descending Kansas Center
Wed 05:01:37 PM 38.1414 -96.7961 62° Northeast 496 571 34,300 -2,143 Descending Kansas Center
Wed 05:02:42 PM 38.2150 -96.6458 58° Northeast 501 577 31,600 -2,476 Descending Kansas Center
Wed 05:03:43 PM 38.2894 -96.4956 58° Northeast 501 577 29,100 -2,529 Descending Kansas Center
Wed 05:04:43 PM 38.3614 -96.3494 58° Northeast 494 568 26,500 -2,688 Descending Kansas Center
Wed 05:05:48 PM 38.4411 -96.1831 59° Northeast 493 567 23,500 -2,619 Descending Kansas Center
Wed 05:06:49 PM 38.5075 -96.0414 59° Northeast 489 563 21,000 -2,529 Descending Kansas Center
Wed 05:07:49 PM 38.5856 -95.8789 58° Northeast 483 556 18,400 -2,129 Descending Kansas Center
Wed 05:08:53 PM 38.6511 -95.7467 58° Northeast 464 534 16,600 -1,872 Descending Kansas Center
Wed 05:09:54 PM 38.7217 -95.5989 59° Northeast 439 505 14,500 -1,872 Descending Kansas Center
Wed 05:10:58 PM 38.7786 -95.4756 59° Northeast 424 488 12,700 -1,220 Descending Kansas Center
Wed 05:11:57 PM 38.8394 -95.3458 59° Northeast 376 433 12,000 -341 Descending Kansas Center
Wed 05:13:01 PM 38.8828 -95.2486 60° Northeast 331 381 12,000 -768 Level Kansas Center
Wed 05:14:02 PM 38.9339 -95.1381 59° Northeast 325 374 10,400 -1,440 Descending Kansas Center
Wed 05:15:06 PM 38.9772 -95.0447 59° Northeast 321 369 9,000 -1,056 Descending Kansas Center
Wed 05:16:07 PM 39.0239 -94.9406 60° Northeast 304 350 8,200 -1,082 Descending Kansas Center
Wed 05:17:08 PM 39.0614 -94.8569 60° Northeast 285 328 6,800 -1,440 Descending Kansas Center
Wed 05:18:12 PM 39.1175 -94.7781 47° Northeast 277 319 5,200 -1,392 Descending Kansas Center
Wed 05:19:13 PM 39.1825 -94.7617 11° North 247 284 3,900 -1,082 Descending Kansas Center
Wed 05:20:14 PM 39.2381 -94.7458 12° North 176 203 3,000 -912 Descending Kansas Center
Wed 05:21:18 PM 39.2728 -94.7350 14° North 137 158 2,000  Descending Kansas Center
Wed 05:22:18 PM 39.3181 -94.7550 341° North 203 234 3,000 484 Climbing Kansas Center
Wed 05:23:22 PM 39.3194 -94.8358 271° West 239 275 3,000  Level Kansas Center
Wed 05:25:24 PM 39.2053 -94.9119 207° Southwest 223 257 3,000  Level Kansas Center
Wed 05:26:27 PM 39.1483 -94.9064 176° South 213 245 3,000  Level Kansas Center
Wed 05:27:30 PM 39.1017 -94.8700 149° Southeast 206 237 3,000  Level Kansas Center
Wed 05:28:31 PM 39.1058 -94.8056 85° East 199 229 3,000  Level Kansas Center
Wed 05:29:32 PM 39.1483 -94.7714 32° Northeast 164 189 3,000  Level Kansas Center
Wed 05:30:36 PM 39.1889 -94.7603 12° North 157 181 3,000 -336 Level Kansas Center
Wed 05:31:37 PM 39.2344 -94.7464 13° North 149 171 2,300 -672 Descending Kansas Center
Wed 05:32:41 PM 39.2700 -94.7358 13° North 139 160 1,600 -624 Descending Kansas Center
Wed 05:33:42 PM 39.3142 -94.7233 12° North 139 160 1,000 -590 Descending Kansas Center

Login

Don't have an account? Register now (free) for customized features, flight alerts, and more!